Airfield :
LOGIN :

Register | Disclaimer

   EN    FR    IT 

 










Legend :    VFR   Marginal VFR   IFR   Intensive IFR   Very Intensive IFR
Visi :
Ceiling :
>= 8 km
>= 3000ft
5 to 8 km
1000 to 3000 ft
1500m to 5 km
500 to 1000 ft
800 to 1500m
200 to 500 ft
< 800m
< 200 ft
Symbols :   Thunderstorms  Fog  Heavy snow  Heavy precipitations  Wind > 20 kt
SIGMETs :     Misc.  Thunderstorms  Icing  Turbulence  Mountain Waves  Volcanic Ashes






- Airport Elevation : 1460 ft


LSMA - Alpnach

CURRENT METAR :
  • 042350Z AUTO 20001KT 9000NDV -RA FEW009 BKN018 BKN040 14/14 Q1014 RERA RMK

EXPIRED METARs :
  • 042320Z AUTO 21002KT 3700NDV RA FEW010 SCT015 BKN019 14/14 Q1014 RMK
  • 042250Z AUTO 21002KT 3700NDV RA SCT012 BKN016 OVC018 14/14 Q1014 RMK
  • 042220Z AUTO 21002KT 4600NDV -RA FEW009 BKN019 15/14 Q1014 RMK
  • 042150Z AUTO 00000KT 7000NDV -RA FEW009 BKN019 15/14 Q1014 RMK
  • 042120Z AUTO 00000KT 8000NDV -RA FEW006 SCT010 BKN016 15/14 Q1014 RMK

Expired Forecast.



MET'MAP, your aeronautical weather chart ! - Copyright ORBIFLY December 2007 - Disclaimer

ORBIFLY MET'MAP TEAM :

Programming & Development : Alexandra Zaïnal
Concept & original design : Baudouin d'Aumeries
Assistance for programming : Marc-Olivier Méhu
Technical & hardware support : Manuel Goepfert

Contact : metmap@orbifly.com




SOURCES & CREDITS :

   NOAA